Time;durP1;ratioP1;P1;durP2;ratioP2;P2;SDS_P1;SDS_P2;PMS_P1;PMS_P2;Temp;Humidity;BMP_temperature;BMP_pressure;BME280_temperature;BME280_humidity;BME280_pressure;Samples;Min_cycle;Max_cycle;Signal;HPM_P1;HPM_P2
2021/10/30 00:09:59;;;;;;;3.92;1.80;;;12.70;99.90;;;;;;20447347;28;20060;-45
2021/10/30 00:20:02;;;;;;;6.45;1.77;;;12.60;99.90;;;;;;20465742;28;20046;-45
2021/10/30 00:30:04;;;;;;;7.13;2.60;;;12.50;99.90;;;;;;20443232;28;20063;-45
2021/10/30 00:40:06;;;;;;;5.05;2.05;;;12.40;99.90;;;;;;20455016;28;20052;-45
2021/10/30 00:50:08;;;;;;;6.50;2.38;;;12.40;99.90;;;;;;20463221;28;20078;-45
2021/10/30 01:00:10;;;;;;;4.07;1.80;;;12.30;99.90;;;;;;20450900;28;20035;-45
2021/10/30 01:10:12;;;;;;;5.38;2.20;;;12.20;99.90;;;;;;20455919;28;20051;-45
2021/10/30 01:20:23;;;;;;;4.47;1.67;;;12.10;99.90;;;;;;20439530;28;20058;-45
2021/10/30 01:30:25;;;;;;;4.55;1.58;;;12.10;99.90;;;;;;20447757;28;20070;-45
2021/10/30 01:40:28;;;;;;;4.78;2.13;;;12.20;99.90;;;;;;20439099;28;20509;-45
2021/10/30 01:50:30;;;;;;;4.15;2.00;;;12.30;99.90;;;;;;20422365;29;20064;-45
2021/10/30 02:00:35;;;;;;;3.80;1.98;;;12.40;99.90;;;;;;20425485;28;20066;-45
2021/10/30 02:10:36;;;;;;;3.97;1.55;;;12.40;99.90;;;;;;20420968;28;20039;-45
2021/10/30 02:20:38;;;;;;;4.93;1.95;;;12.30;99.90;;;;;;20370115;28;20036;-45
2021/10/30 02:30:39;;;;;;;3.83;1.88;;;12.30;99.90;;;;;;20413227;28;20047;-45
2021/10/30 02:40:40;;;;;;;5.82;1.80;;;12.20;99.90;;;;;;20397281;29;20044;-45
2021/10/30 02:50:41;;;;;;;5.75;2.17;;;12.10;99.90;;;;;;20338111;29;20044;-45
2021/10/30 03:00:42;;;;;;;3.42;1.67;;;12.20;99.90;;;;;;20328550;29;20470;-45
2021/10/30 03:10:43;;;;;;;3.83;1.80;;;12.30;99.90;;;;;;20329281;29;20048;-45
2021/10/30 03:20:44;;;;;;;4.93;2.20;;;12.30;99.90;;;;;;20331067;29;20031;-45
2021/10/30 03:30:45;;;;;;;4.28;2.13;;;12.20;99.90;;;;;;20313604;29;20060;-45
2021/10/30 03:40:48;;;;;;;6.82;2.58;;;12.10;99.90;;;;;;20367866;28;21205;-45
2021/10/30 03:50:52;;;;;;;4.82;1.83;;;12.10;99.90;;;;;;20426672;28;20052;-45
2021/10/30 04:00:53;;;;;;;6.07;1.90;;;12.10;99.90;;;;;;20434934;28;20043;-45
2021/10/30 04:10:54;;;;;;;4.32;2.50;;;12.20;99.90;;;;;;20428139;28;20063;-45
2021/10/30 04:20:55;;;;;;;4.50;2.38;;;12.20;99.90;;;;;;20431826;29;20046;-45
2021/10/30 04:31:02;;;;;;;8.70;2.70;;;12.10;99.90;;;;;;20423966;28;20523;-45
2021/10/30 04:41:03;;;;;;;6.63;2.92;;;12.20;99.90;;;;;;20419720;29;20043;-45
2021/10/30 04:51:06;;;;;;;6.38;2.50;;;12.30;99.90;;;;;;20427577;28;20051;-45
2021/10/30 05:01:07;;;;;;;5.30;2.83;;;12.30;99.90;;;;;;20422287;28;20063;-45
2021/10/30 05:11:08;;;;;;;6.25;3.22;;;12.20;99.90;;;;;;20413000;28;20051;-45
2021/10/30 05:21:10;;;;;;;7.13;2.90;;;12.30;99.90;;;;;;20432347;28;20066;-45
2021/10/30 05:31:11;;;;;;;6.90;3.25;;;12.30;99.90;;;;;;20396039;29;20063;-45
2021/10/30 05:41:12;;;;;;;6.03;3.10;;;12.40;99.90;;;;;;20391318;28;20419;-44
2021/10/30 05:51:13;;;;;;;4.15;2.05;;;12.30;99.90;;;;;;20387706;28;20067;-44
2021/10/30 06:01:15;;;;;;;7.75;2.92;;;12.30;99.90;;;;;;20396865;28;20051;-44
2021/10/30 06:11:16;;;;;;;6.32;2.40;;;12.20;99.90;;;;;;20391663;28;20063;-44
2021/10/30 06:21:18;;;;;;;8.60;3.17;;;12.20;99.90;;;;;;20392364;28;20051;-44
2021/10/30 06:31:19;;;;;;;5.07;2.33;;;12.20;99.90;;;;;;20389332;29;20062;-44
2021/10/30 06:41:20;;;;;;;6.88;2.50;;;12.20;99.90;;;;;;20392185;28;20056;-44
2021/10/30 06:51:29;;;;;;;4.93;2.05;;;12.20;99.90;;;;;;20370645;28;20126;-44
2021/10/30 07:01:33;;;;;;;6.22;2.58;;;12.10;99.90;;;;;;20386602;28;20522;-44
2021/10/30 07:11:34;;;;;;;6.90;2.60;;;12.20;99.90;;;;;;20387340;29;20071;-44
2021/10/30 07:21:35;;;;;;;7.50;3.60;;;12.20;99.90;;;;;;20397374;29;20063;-44
2021/10/30 07:31:37;;;;;;;7.22;2.38;;;12.20;99.90;;;;;;20408922;28;20047;-44
2021/10/30 07:41:38;;;;;;;6.68;3.20;;;12.30;99.90;;;;;;20418965;29;20047;-44
2021/10/30 07:51:39;;;;;;;6.45;2.90;;;12.30;99.90;;;;;;20414119;28;20158;-44
2021/10/30 08:01:40;;;;;;;6.75;2.67;;;12.30;99.90;;;;;;20435906;28;20051;-44
2021/10/30 08:11:42;;;;;;;6.78;3.00;;;12.30;99.90;;;;;;20427523;28;20936;-44
2021/10/30 08:21:43;;;;;;;6.25;3.13;;;12.20;99.90;;;;;;20419610;28;20390;-44
2021/10/30 08:31:44;;;;;;;5.32;2.50;;;12.20;99.90;;;;;;20423587;28;21056;-44
2021/10/30 08:41:45;;;;;;;5.53;2.33;;;12.20;99.90;;;;;;20408793;28;20051;-44
2021/10/30 08:51:48;;;;;;;5.10;2.60;;;12.30;99.90;;;;;;20416373;28;20066;-44
2021/10/30 09:01:52;;;;;;;6.38;2.17;;;12.30;99.90;;;;;;20410005;29;20439;-44
2021/10/30 09:11:58;;;;;;;4.63;1.90;;;12.40;99.90;;;;;;20410181;29;20039;-44
2021/10/30 09:22:06;;;;;;;5.00;1.83;;;12.50;99.90;;;;;;20407559;29;20035;-44
2021/10/30 09:32:11;;;;;;;;;;;12.50;99.90;;;;;;20408187;28;21058;-44
2021/10/30 09:42:26;;;;;;;3.90;1.60;;;12.50;99.90;;;;;;20409599;29;19966;-45
2021/10/30 09:52:30;;;;;;;4.05;1.85;;;12.60;99.90;;;;;;20408453;29;20449;-46
2021/10/30 10:02:35;;;;;;;4.72;1.85;;;12.50;99.90;;;;;;20419766;29;20395;-46
2021/10/30 10:12:37;;;;;;;5.22;2.15;;;12.60;99.90;;;;;;20406177;29;20066;-46
2021/10/30 10:22:40;;;;;;;4.88;1.88;;;12.60;99.90;;;;;;20403101;28;20047;-46
2021/10/30 10:32:41;;;;;;;4.68;1.90;;;12.50;99.90;;;;;;20396919;28;20035;-46
2021/10/30 10:42:43;;;;;;;4.22;2.00;;;12.60;99.90;;;;;;20398992;28;20048;-45
2021/10/30 10:53:00;;;;;;;3.80;1.77;;;12.60;99.90;;;;;;20418328;28;20510;-45
2021/10/30 11:03:01;;;;;;;5.43;1.92;;;12.70;99.90;;;;;;20403762;29;20516;-45
2021/10/30 11:13:08;;;;;;;2.55;1.35;;;12.90;99.90;;;;;;20410881;29;20048;-45
2021/10/30 11:23:22;;;;;;;3.80;2.00;;;12.90;99.90;;;;;;20421453;28;20084;-44
2021/10/30 11:33:30;;;;;;;4.00;1.65;;;13.00;99.90;;;;;;20409597;28;20070;-45
2021/10/30 11:43:34;;;;;;;3.30;1.38;;;13.00;99.90;;;;;;20408409;29;20064;-44
2021/10/30 11:53:37;;;;;;;3.13;1.65;;;13.10;99.90;;;;;;20388217;28;20036;-45
2021/10/30 12:03:38;;;;;;;3.63;1.70;;;13.10;99.90;;;;;;20403247;28;20047;-44
2021/10/30 12:13:45;;;;;;;4.70;1.77;;;13.20;99.90;;;;;;20405078;29;20051;-44
2021/10/30 12:23:54;;;;;;;2.47;1.20;;;13.20;99.90;;;;;;20402111;28;20075;-45
2021/10/30 12:33:57;;;;;;;2.92;1.33;;;13.20;99.90;;;;;;20400621;28;20064;-44
2021/10/30 12:44:02;;;;;;;3.45;1.10;;;13.30;99.90;;;;;;20407699;28;20055;-44
2021/10/30 12:54:06;;;;;;;4.57;1.20;;;13.40;99.90;;;;;;20401324;29;20050;-44
2021/10/30 13:04:11;;;;;;;2.38;1.33;;;13.50;99.90;;;;;;20401031;28;20102;-45
2021/10/30 13:14:13;;;;;;;2.30;1.02;;;13.60;99.90;;;;;;20378333;28;20047;-44
2021/10/30 13:24:14;;;;;;;2.40;1.02;;;13.70;99.90;;;;;;20380548;28;20074;-44
2021/10/30 13:34:15;;;;;;;8.38;1.67;;;13.60;99.90;;;;;;20380289;29;20043;-44
2021/10/30 13:44:16;;;;;;;2.08;0.80;;;13.60;99.90;;;;;;20367965;29;20795;-45
2021/10/30 13:54:17;;;;;;;2.15;1.10;;;13.50;99.90;;;;;;20371546;28;20043;-45
2021/10/30 14:04:18;;;;;;;2.10;0.90;;;13.60;99.90;;;;;;20381193;28;20056;-45
2021/10/30 14:14:19;;;;;;;2.35;1.00;;;13.70;99.90;;;;;;20367589;28;20406;-44
2021/10/30 14:24:21;;;;;;;3.55;1.08;;;13.80;99.90;;;;;;20386602;28;20083;-45
2021/10/30 14:34:22;;;;;;;1.55;0.80;;;13.80;99.90;;;;;;20407572;28;20039;-45
2021/10/30 14:44:23;;;;;;;2.40;1.10;;;13.80;99.90;;;;;;20409170;28;20060;-44
2021/10/30 14:54:24;;;;;;;2.80;0.90;;;13.80;99.90;;;;;;20402703;28;20056;-45
2021/10/30 15:04:25;;;;;;;2.25;0.90;;;13.70;99.90;;;;;;20441129;29;20065;-45
2021/10/30 15:14:26;;;;;;;2.80;0.90;;;13.70;99.90;;;;;;20423681;28;20413;-45
2021/10/30 15:24:27;;;;;;;1.83;0.77;;;13.70;99.90;;;;;;20421821;28;20043;-45
2021/10/30 15:34:29;;;;;;;2.53;0.90;;;13.60;99.90;;;;;;20423895;28;20035;-45
2021/10/30 15:44:34;;;;;;;4.05;1.48;;;13.50;99.90;;;;;;20419030;28;20609;-45
2021/10/30 15:54:35;;;;;;;1.90;1.02;;;13.50;99.90;;;;;;20415754;28;20044;-45
2021/10/30 16:04:36;;;;;;;3.25;1.30;;;13.50;99.90;;;;;;20443178;28;20082;-45
2021/10/30 16:14:37;;;;;;;2.25;1.00;;;13.40;99.90;;;;;;20423196;28;20070;-46
2021/10/30 16:24:38;;;;;;;2.47;0.88;;;13.40;99.90;;;;;;20430553;28;20035;-46
2021/10/30 16:34:39;;;;;;;3.30;1.85;;;13.40;99.90;;;;;;20414572;28;20485;-46
2021/10/30 16:44:43;;;;;;;2.45;0.98;;;13.30;99.90;;;;;;20399578;28;20066;-47
2021/10/30 16:54:47;;;;;;;4.20;2.33;;;13.30;99.90;;;;;;20435460;28;20577;-47
2021/10/30 17:04:51;;;;;;;3.63;0.93;;;13.20;99.90;;;;;;20414420;28;20062;-46
2021/10/30 17:14:52;;;;;;;2.95;1.20;;;13.20;99.90;;;;;;20420775;28;20352;-45
2021/10/30 17:24:53;;;;;;;3.28;1.10;;;13.00;99.90;;;;;;20411735;28;20070;-45
2021/10/30 17:34:54;;;;;;;3.50;1.25;;;13.00;99.90;;;;;;20416212;28;20038;-45
2021/10/30 17:44:55;;;;;;;4.53;0.98;;;12.90;99.90;;;;;;20413051;28;20063;-45
2021/10/30 17:55:02;;;;;;;3.65;1.20;;;12.80;99.90;;;;;;20421568;28;20114;-45
2021/10/30 18:05:04;;;;;;;5.15;1.40;;;12.60;99.90;;;;;;20421772;28;20035;-45
2021/10/30 18:15:05;;;;;;;3.72;2.03;;;12.60;99.90;;;;;;20412624;29;20047;-45
2021/10/30 18:25:11;;;;;;;2.92;1.13;;;12.50;99.90;;;;;;20411116;28;20051;-45
2021/10/30 18:35:12;;;;;;;4.60;1.48;;;12.40;99.90;;;;;;20416204;28;20517;-45
2021/10/30 18:45:15;;;;;;;4.38;1.10;;;12.30;99.90;;;;;;20411026;28;20078;-45
2021/10/30 18:55:17;;;;;;;2.78;0.82;;;12.20;99.90;;;;;;20419000;29;20055;-45
2021/10/30 19:05:18;;;;;;;2.03;0.88;;;12.10;99.90;;;;;;20431073;28;20066;-45
2021/10/30 19:15:20;;;;;;;3.47;1.38;;;12.00;99.90;;;;;;20424820;28;20047;-45
2021/10/30 19:25:21;;;;;;;1.67;0.98;;;11.90;99.90;;;;;;20423036;28;20546;-45
2021/10/30 19:35:22;;;;;;;3.67;1.23;;;11.80;99.90;;;;;;20420959;28;20035;-45
2021/10/30 19:45:24;;;;;;;5.70;2.30;;;11.80;99.90;;;;;;20411621;28;20070;-45
2021/10/30 19:55:25;;;;;;;4.93;2.72;;;11.90;99.90;;;;;;20430392;28;20051;-44
2021/10/30 20:05:27;;;;;;;8.27;3.13;;;11.90;99.90;;;;;;20409123;28;20591;-45
2021/10/30 20:15:28;;;;;;;7.57;3.35;;;11.90;99.90;;;;;;20425139;28;20047;-45
2021/10/30 20:25:30;;;;;;;8.05;3.08;;;12.00;99.90;;;;;;20426845;28;20047;-45
2021/10/30 20:35:31;;;;;;;8.75;4.18;;;12.10;99.90;;;;;;20416432;28;20042;-44
2021/10/30 20:45:35;;;;;;;10.65;3.72;;;12.00;99.90;;;;;;20421516;28;20064;-45
2021/10/30 20:55:37;;;;;;;9.38;3.92;;;12.00;99.90;;;;;;20425062;28;20572;-45
2021/10/30 21:05:39;;;;;;;11.07;4.30;;;12.00;99.90;;;;;;20412119;28;20529;-45
2021/10/30 21:15:42;;;;;;;8.65;3.85;;;11.90;99.90;;;;;;20398632;28;20051;-45
2021/10/30 21:25:43;;;;;;;10.68;2.85;;;11.80;99.90;;;;;;20404828;28;20066;-45
2021/10/30 21:35:44;;;;;;;7.85;3.40;;;11.80;99.90;;;;;;20416860;28;20121;-45
2021/10/30 21:45:46;;;;;;;8.63;3.83;;;11.80;99.90;;;;;;20425839;28;20556;-45
2021/10/30 21:55:47;;;;;;;10.40;3.42;;;11.70;99.90;;;;;;20424663;28;20052;-45
2021/10/30 22:05:49;;;;;;;8.00;3.20;;;11.70;99.90;;;;;;20426663;28;20043;-44
2021/10/30 22:15:50;;;;;;;9.80;2.75;;;11.60;99.90;;;;;;20419454;28;20055;-45
2021/10/30 22:25:51;;;;;;;6.43;2.58;;;11.50;99.90;;;;;;20403909;28;20048;-44
2021/10/30 22:35:53;;;;;;;7.03;3.75;;;11.50;99.90;;;;;;20417359;28;20038;-44
2021/10/30 22:45:54;;;;;;;5.22;2.22;;;11.40;99.90;;;;;;20420616;28;20537;-44
2021/10/30 22:55:55;;;;;;;10.77;2.92;;;11.30;99.90;;;;;;20426605;28;20070;-45
2021/10/30 23:05:56;;;;;;;4.15;1.88;;;11.30;99.90;;;;;;20422177;28;20050;-44
2021/10/30 23:15:57;;;;;;;5.50;2.05;;;11.20;99.90;;;;;;20423045;29;20043;-44
2021/10/30 23:25:58;;;;;;;3.72;1.80;;;11.20;99.90;;;;;;20425295;28;20066;-45
2021/10/30 23:35:59;;;;;;;3.85;1.95;;;11.10;99.90;;;;;;20415329;28;20047;-44
2021/10/30 23:46:00;;;;;;;4.07;1.75;;;11.00;99.90;;;;;;20420350;28;20054;-44
2021/10/30 23:56:02;;;;;;;5.30;2.13;;;10.90;99.90;;;;;;20429221;28;20047;-45
